Time;durP1;ratioP1;P1;durP2;ratioP2;P2;SDS_P1;SDS_P2;PMS_P1;PMS_P2;Temp;Humidity;BMP_temperature;BMP_pressure;BME280_temperature;BME280_humidity;BME280_pressure;Samples;Min_cycle;Max_cycle;Signal;HPM_P1;HPM_P2
2023/09/02 00:01:15;;;;;;;6.00;4.20;;;;;;;;;;5053635;28;20538;-73
2023/09/02 00:03:40;;;;;;;6.30;4.30;;;;;;;;;;5052369;28;20621;-73
2023/09/02 00:06:06;;;;;;;9.10;4.60;;;;;;;;;;5053906;28;20031;-73
2023/09/02 00:08:31;;;;;;;6.68;4.05;;;;;;;;;;5054033;28;20067;-73
2023/09/02 00:10:56;;;;;;;5.15;4.47;;;;;;;;;;5053844;28;20031;-73
2023/09/02 00:13:21;;;;;;;4.88;4.32;;;;;;;;;;5053600;28;20392;-73
2023/09/02 00:15:47;;;;;;;5.68;4.00;;;;;;;;;;5053493;28;20020;-73
2023/09/02 00:18:12;;;;;;;5.05;4.07;;;;;;;;;;5052136;28;20059;-73
2023/09/02 00:20:37;;;;;;;5.90;3.95;;;;;;;;;;5053434;28;20025;-73
2023/09/02 00:23:03;;;;;;;6.47;4.35;;;;;;;;;;5054015;28;20029;-73
2023/09/02 00:25:28;;;;;;;5.75;4.03;;;;;;;;;;5053251;28;20037;-73
2023/09/02 00:27:53;;;;;;;4.88;3.78;;;;;;;;;;5052066;28;20033;-72
2023/09/02 00:30:18;;;;;;;7.63;4.30;;;;;;;;;;5053370;28;20542;-73
2023/09/02 00:32:44;;;;;;;6.95;4.00;;;;;;;;;;5053565;28;20262;-73
2023/09/02 00:35:10;;;;;;;5.55;4.10;;;;;;;;;;5053234;28;20591;-73
2023/09/02 00:37:35;;;;;;;6.97;3.97;;;;;;;;;;5053797;28;20031;-73
2023/09/02 00:40:01;;;;;;;4.65;3.80;;;;;;;;;;5053031;28;20113;-74
2023/09/02 00:42:28;;;;;;;5.22;4.32;;;;;;;;;;5053407;28;20455;-72
2023/09/02 00:44:53;;;;;;;5.00;3.65;;;;;;;;;;5053315;28;20021;-73
2023/09/02 00:47:18;;;;;;;6.45;4.13;;;;;;;;;;5053095;28;20121;-73
2023/09/02 00:49:44;;;;;;;6.95;4.00;;;;;;;;;;5053301;28;20430;-74
2023/09/02 00:52:09;;;;;;;6.60;4.20;;;;;;;;;;5053026;28;20017;-72
2023/09/02 00:54:34;;;;;;;5.57;4.00;;;;;;;;;;5053275;28;20464;-72
2023/09/02 00:57:00;;;;;;;5.20;4.05;;;;;;;;;;5053181;28;20285;-72
2023/09/02 00:59:25;;;;;;;4.78;4.25;;;;;;;;;;5053092;28;20523;-72
2023/09/02 01:01:52;;;;;;;8.73;4.00;;;;;;;;;;5052871;28;20016;-72
2023/09/02 01:04:17;;;;;;;5.88;4.00;;;;;;;;;;5052914;28;20021;-72
2023/09/02 01:06:43;;;;;;;4.32;3.90;;;;;;;;;;5051535;28;20506;-72
2023/09/02 01:09:10;;;;;;;4.40;4.00;;;;;;;;;;5052748;28;20021;-72
2023/09/02 01:11:35;;;;;;;8.77;4.10;;;;;;;;;;5052766;28;20024;-73
2023/09/02 01:14:02;;;;;;;6.88;4.10;;;;;;;;;;5052822;28;20498;-73
2023/09/02 01:16:27;;;;;;;7.40;3.97;;;;;;;;;;5055239;28;20070;-72
2023/09/02 01:18:53;;;;;;;4.93;3.80;;;;;;;;;;5056803;28;20029;-73
2023/09/02 01:21:40;;;;;;;7.47;4.05;;;;;;;;;;5055536;28;20017;-72
2023/09/02 01:24:27;;;;;;;6.05;3.67;;;;;;;;;;5056781;28;20071;-72
2023/09/02 01:27:13;;;;;;;5.97;3.95;;;;;;;;;;5057187;28;20028;-72
2023/09/02 01:29:45;;;;;;;7.05;3.95;;;;;;;;;;5057183;28;20025;-72
2023/09/02 01:32:13;;;;;;;5.35;4.00;;;;;;;;;;5057142;28;20021;-72
2023/09/02 01:34:38;;;;;;;6.63;4.00;;;;;;;;;;5056642;28;20396;-72
2023/09/02 01:37:07;;;;;;;5.57;3.58;;;;;;;;;;5056545;28;20029;-72
2023/09/02 01:39:35;;;;;;;5.65;3.60;;;;;;;;;;5056285;28;20240;-73
2023/09/02 01:42:00;;;;;;;4.65;3.90;;;;;;;;;;5054605;28;20463;-74
2023/09/02 01:44:28;;;;;;;6.20;3.35;;;;;;;;;;5054560;28;20075;-75
2023/09/02 01:46:53;;;;;;;7.07;4.00;;;;;;;;;;5054833;28;20268;-72
2023/09/02 01:49:18;;;;;;;6.93;3.67;;;;;;;;;;5055139;28;20025;-75
2023/09/02 01:51:44;;;;;;;10.38;3.70;;;;;;;;;;5055616;28;20028;-72
2023/09/02 01:54:10;;;;;;;4.70;3.60;;;;;;;;;;5056286;28;20035;-73
2023/09/02 01:56:36;;;;;;;4.50;3.55;;;;;;;;;;5056241;28;20036;-73
2023/09/02 01:59:01;;;;;;;7.55;3.70;;;;;;;;;;5055819;28;20029;-73
2023/09/02 02:01:27;;;;;;;6.35;3.55;;;;;;;;;;5055922;28;20021;-73
2023/09/02 02:04:04;;;;;;;10.20;3.78;;;;;;;;;;5055951;28;20507;-73
2023/09/02 02:06:31;;;;;;;4.60;3.70;;;;;;;;;;5056414;28;20383;-73
2023/09/02 02:09:07;;;;;;;5.55;3.45;;;;;;;;;;5055896;28;20400;-72
2023/09/02 02:11:38;;;;;;;4.63;3.90;;;;;;;;;;5055928;28;20029;-73
2023/09/02 02:14:04;;;;;;;4.75;3.38;;;;;;;;;;5055939;28;20052;-72
2023/09/02 02:16:30;;;;;;;6.68;3.80;;;;;;;;;;5056359;28;20465;-74
2023/09/02 02:18:58;;;;;;;5.45;3.67;;;;;;;;;;5054739;28;20499;-73
2023/09/02 02:21:23;;;;;;;4.68;3.60;;;;;;;;;;5056044;28;20115;-73
2023/09/02 02:23:49;;;;;;;4.65;3.63;;;;;;;;;;5054551;28;20105;-74
2023/09/02 02:26:15;;;;;;;4.20;3.78;;;;;;;;;;5056042;28;20025;-73
2023/09/02 02:28:41;;;;;;;5.55;3.90;;;;;;;;;;5054560;28;20021;-73
2023/09/02 02:31:07;;;;;;;6.57;4.05;;;;;;;;;;5055835;28;20507;-73
2023/09/02 02:33:32;;;;;;;5.82;3.97;;;;;;;;;;5055275;28;20178;-72
2023/09/02 02:35:57;;;;;;;8.70;4.10;;;;;;;;;;5054455;28;20452;-72
2023/09/02 02:38:23;;;;;;;4.65;3.55;;;;;;;;;;5055852;28;20511;-74
2023/09/02 02:40:48;;;;;;;5.63;3.95;;;;;;;;;;5055534;28;20029;-76
2023/09/02 02:43:13;;;;;;;4.90;4.00;;;;;;;;;;5054608;28;20025;-75
2023/09/02 02:45:39;;;;;;;6.57;4.03;;;;;;;;;;5055566;28;20108;-76
2023/09/02 02:48:04;;;;;;;4.60;3.70;;;;;;;;;;5055255;28;20262;-76
2023/09/02 02:50:30;;;;;;;6.05;4.03;;;;;;;;;;5055932;28;20021;-76
2023/09/02 02:52:55;;;;;;;5.18;3.85;;;;;;;;;;5056518;28;20402;-76
2023/09/02 02:55:20;;;;;;;5.67;4.10;;;;;;;;;;5056019;28;20025;-76
2023/09/02 02:57:46;;;;;;;4.90;4.05;;;;;;;;;;5055623;28;20633;-76
2023/09/02 03:00:11;;;;;;;7.30;4.10;;;;;;;;;;5055117;28;20396;-76
2023/09/02 03:02:37;;;;;;;4.97;3.83;;;;;;;;;;5055196;28;20032;-76
2023/09/02 03:05:02;;;;;;;8.57;4.15;;;;;;;;;;5055099;28;20395;-75
2023/09/02 03:07:28;;;;;;;5.40;4.38;;;;;;;;;;5054910;28;20510;-77
2023/09/02 03:09:53;;;;;;;5.03;3.88;;;;;;;;;;5054776;28;20086;-74
2023/09/02 03:12:19;;;;;;;4.65;4.05;;;;;;;;;;5053992;28;20031;-76
2023/09/02 03:14:48;;;;;;;6.00;3.90;;;;;;;;;;5054491;28;20029;-75
2023/09/02 03:17:14;;;;;;;4.70;3.92;;;;;;;;;;5055014;28;20492;-77
2023/09/02 03:19:44;;;;;;;9.05;4.88;;;;;;;;;;5052206;28;20036;-75
2023/09/02 03:22:09;;;;;;;4.97;4.00;;;;;;;;;;5054363;28;20024;-77
2023/09/02 03:24:34;;;;;;;4.13;3.73;;;;;;;;;;5054355;28;20032;-75
2023/09/02 03:26:59;;;;;;;6.30;3.70;;;;;;;;;;5053386;28;20332;-75
2023/09/02 03:29:25;;;;;;;6.05;3.92;;;;;;;;;;5054595;28;20349;-75
2023/09/02 03:31:50;;;;;;;5.50;3.80;;;;;;;;;;5054540;28;20017;-75
2023/09/02 03:34:15;;;;;;;4.07;3.65;;;;;;;;;;5054860;28;20069;-75
2023/09/02 03:36:40;;;;;;;5.07;3.70;;;;;;;;;;5054480;28;20029;-75
2023/09/02 03:39:06;;;;;;;5.23;3.73;;;;;;;;;;5053993;28;20277;-75
2023/09/02 03:41:31;;;;;;;4.53;3.50;;;;;;;;;;5054525;28;20266;-75
2023/09/02 03:43:56;;;;;;;5.53;3.97;;;;;;;;;;5054455;28;20729;-74
2023/09/02 03:46:24;;;;;;;8.05;4.13;;;;;;;;;;5054467;28;20309;-75
2023/09/02 03:48:49;;;;;;;9.07;3.80;;;;;;;;;;5054634;28;20021;-74
2023/09/02 03:51:17;;;;;;;8.20;3.97;;;;;;;;;;5054214;28;20071;-74
2023/09/02 03:53:43;;;;;;;5.18;4.18;;;;;;;;;;5054324;28;20493;-74
2023/09/02 03:56:09;;;;;;;4.78;4.05;;;;;;;;;;5054339;28;20029;-75
2023/09/02 03:58:34;;;;;;;6.18;3.83;;;;;;;;;;5052906;28;20028;-75
2023/09/02 04:01:00;;;;;;;7.93;4.20;;;;;;;;;;5052788;28;20029;-74
2023/09/02 04:03:27;;;;;;;7.28;3.92;;;;;;;;;;5054292;28;20036;-74
2023/09/02 04:05:52;;;;;;;4.80;4.07;;;;;;;;;;5054412;28;20056;-75
2023/09/02 04:08:19;;;;;;;4.25;3.85;;;;;;;;;;5052569;28;20577;-74
2023/09/02 04:10:50;;;;;;;4.72;3.67;;;;;;;;;;5053781;28;20025;-74
2023/09/02 04:13:15;;;;;;;4.95;4.07;;;;;;;;;;5052850;28;20033;-73
2023/09/02 04:15:40;;;;;;;4.70;4.03;;;;;;;;;;5052581;28;20017;-72
2023/09/02 04:18:06;;;;;;;6.13;3.80;;;;;;;;;;5053720;28;20253;-73
2023/09/02 04:20:34;;;;;;;7.50;3.97;;;;;;;;;;5053725;28;20435;-73
2023/09/02 04:23:00;;;;;;;5.72;3.97;;;;;;;;;;5053556;28;20025;-73
2023/09/02 04:25:25;;;;;;;4.88;4.18;;;;;;;;;;5053270;28;20550;-73
2023/09/02 04:27:50;;;;;;;6.32;4.13;;;;;;;;;;5053646;28;20064;-73
2023/09/02 04:30:16;;;;;;;8.20;4.20;;;;;;;;;;5052303;28;20074;-74
2023/09/02 04:32:41;;;;;;;5.72;4.00;;;;;;;;;;5053266;28;20071;-73
2023/09/02 04:35:07;;;;;;;5.87;4.07;;;;;;;;;;5053584;28;20571;-73
2023/09/02 04:37:32;;;;;;;5.93;4.15;;;;;;;;;;5053832;28;20632;-73
2023/09/02 04:39:58;;;;;;;8.15;4.22;;;;;;;;;;5053317;28;20029;-73
2023/09/02 04:42:23;;;;;;;4.88;3.97;;;;;;;;;;5053250;28;20483;-73
2023/09/02 04:44:51;;;;;;;6.32;4.18;;;;;;;;;;5053338;28;20047;-73
2023/09/02 04:47:16;;;;;;;4.72;4.20;;;;;;;;;;5053346;28;20035;-73
2023/09/02 04:49:42;;;;;;;6.40;3.83;;;;;;;;;;5053141;28;20096;-74
2023/09/02 04:52:07;;;;;;;5.03;4.35;;;;;;;;;;5053217;28;20029;-74
2023/09/02 04:54:32;;;;;;;5.38;4.60;;;;;;;;;;5051896;28;20029;-74
2023/09/02 04:56:58;;;;;;;7.15;4.47;;;;;;;;;;5053579;28;20017;-74
2023/09/02 04:59:23;;;;;;;7.97;4.57;;;;;;;;;;5053201;28;20043;-74
2023/09/02 05:01:48;;;;;;;10.18;5.00;;;;;;;;;;5053323;28;20528;-73
2023/09/02 05:04:13;;;;;;;6.10;5.03;;;;;;;;;;5053017;28;20032;-73
2023/09/02 05:06:39;;;;;;;7.57;4.87;;;;;;;;;;5052848;28;20281;-73
2023/09/02 05:09:04;;;;;;;8.98;4.78;;;;;;;;;;5052901;28;20254;-73
2023/09/02 05:11:30;;;;;;;7.65;4.43;;;;;;;;;;5052921;28;20063;-78
2023/09/02 05:13:55;;;;;;;8.02;4.78;;;;;;;;;;5052962;28;20033;-73
2023/09/02 05:16:20;;;;;;;5.32;4.28;;;;;;;;;;5052816;28;20024;-73
2023/09/02 05:18:46;;;;;;;5.70;4.15;;;;;;;;;;5052828;28;20468;-73
2023/09/02 05:21:11;;;;;;;5.37;4.40;;;;;;;;;;5053044;28;20029;-73
2023/09/02 05:23:36;;;;;;;6.30;4.97;;;;;;;;;;5052998;28;20290;-74
2023/09/02 05:26:02;;;;;;;7.27;4.97;;;;;;;;;;5052764;28;20373;-73
2023/09/02 05:28:27;;;;;;;9.20;5.38;;;;;;;;;;5052584;28;20253;-73
2023/09/02 05:30:53;;;;;;;8.73;5.70;;;;;;;;;;5052735;28;20392;-73
2023/09/02 05:33:18;;;;;;;8.63;6.65;;;;;;;;;;5052941;28;20062;-73
2023/09/02 05:35:44;;;;;;;10.45;5.47;;;;;;;;;;5052660;28;20498;-72
2023/09/02 05:38:09;;;;;;;17.52;6.10;;;;;;;;;;5051333;28;20544;-73
2023/09/02 05:40:38;;;;;;;9.77;5.45;;;;;;;;;;5052724;28;20017;-73
2023/09/02 05:43:04;;;;;;;8.27;5.38;;;;;;;;;;5052378;28;20039;-74
2023/09/02 05:45:29;;;;;;;7.70;5.78;;;;;;;;;;5051124;28;20032;-73
2023/09/02 05:47:54;;;;;;;5.77;5.13;;;;;;;;;;5052719;28;20499;-72
2023/09/02 05:50:19;;;;;;;7.97;4.80;;;;;;;;;;5052677;28;20614;-73
2023/09/02 05:52:45;;;;;;;8.13;5.00;;;;;;;;;;5052034;28;20292;-74
2023/09/02 05:55:10;;;;;;;7.38;5.35;;;;;;;;;;5052295;28;20036;-73
2023/09/02 05:57:35;;;;;;;10.93;5.37;;;;;;;;;;5053068;28;20487;-73
2023/09/02 06:00:03;;;;;;;8.48;5.45;;;;;;;;;;5050976;28;20681;-73
2023/09/02 06:02:33;;;;;;;11.35;5.70;;;;;;;;;;5054720;28;20389;-73
2023/09/02 06:04:58;;;;;;;8.80;5.35;;;;;;;;;;5056438;28;20021;-73
2023/09/02 06:07:23;;;;;;;6.38;5.40;;;;;;;;;;5054637;28;20032;-73
2023/09/02 06:09:49;;;;;;;8.73;5.23;;;;;;;;;;5055867;28;20043;-74
2023/09/02 06:12:14;;;;;;;6.32;4.85;;;;;;;;;;5055150;28;20265;-73
2023/09/02 06:14:39;;;;;;;6.93;5.03;;;;;;;;;;5056394;28;20025;-73
2023/09/02 06:17:04;;;;;;;6.53;5.20;;;;;;;;;;5056270;28;20246;-73
2023/09/02 06:19:30;;;;;;;8.77;5.10;;;;;;;;;;5056162;28;20027;-73
2023/09/02 06:21:55;;;;;;;6.80;5.10;;;;;;;;;;5054892;28;20024;-73
2023/09/02 06:24:20;;;;;;;7.60;5.10;;;;;;;;;;5055830;28;20403;-73
2023/09/02 06:26:45;;;;;;;6.57;4.90;;;;;;;;;;5055698;28;20270;-75
2023/09/02 06:29:11;;;;;;;5.30;4.70;;;;;;;;;;5055858;28;20266;-73
2023/09/02 06:31:37;;;;;;;6.07;4.75;;;;;;;;;;5055939;28;20258;-73
2023/09/02 06:34:02;;;;;;;5.65;4.93;;;;;;;;;;5054366;28;20025;-75
2023/09/02 06:36:27;;;;;;;6.28;5.10;;;;;;;;;;5053450;28;20023;-73
2023/09/02 06:38:53;;;;;;;5.28;4.75;;;;;;;;;;5055844;28;20078;-73
2023/09/02 06:41:18;;;;;;;6.03;4.60;;;;;;;;;;5054356;28;20400;-71
2023/09/02 06:43:44;;;;;;;6.10;4.80;;;;;;;;;;5055522;28;20032;-72
2023/09/02 06:46:20;;;;;;;6.35;5.45;;;;;;;;;;5055788;28;20025;-72
2023/09/02 06:48:46;;;;;;;6.47;4.82;;;;;;;;;;5055555;28;20098;-75
2023/09/02 06:51:13;;;;;;;11.15;5.15;;;;;;;;;;5055317;28;20369;-73
2023/09/02 06:53:39;;;;;;;5.40;4.80;;;;;;;;;;5055453;28;20056;-73
2023/09/02 06:56:14;;;;;;;8.70;5.57;;;;;;;;;;5055281;28;20032;-73
2023/09/02 06:58:41;;;;;;;8.13;5.38;;;;;;;;;;5054788;28;20107;-74
2023/09/02 07:01:06;;;;;;;9.85;5.45;;;;;;;;;;5055257;28;20514;-73
2023/09/02 07:03:31;;;;;;;8.05;5.20;;;;;;;;;;5053532;28;20059;-75
2023/09/02 07:06:04;;;;;;;6.32;4.95;;;;;;;;;;5054751;28;20112;-74
2023/09/02 07:08:30;;;;;;;7.47;5.10;;;;;;;;;;5054423;28;20082;-75
2023/09/02 07:10:57;;;;;;;6.93;5.30;;;;;;;;;;5053695;28;20025;-74
2023/09/02 07:13:23;;;;;;;6.63;5.25;;;;;;;;;;5052841;28;20399;-73
2023/09/02 07:15:48;;;;;;;6.63;5.50;;;;;;;;;;5054793;28;20025;-75
2023/09/02 07:18:13;;;;;;;6.43;5.10;;;;;;;;;;5054700;28;20029;-73
2023/09/02 07:20:38;;;;;;;8.38;5.22;;;;;;;;;;5055099;28;20266;-75
2023/09/02 07:23:04;;;;;;;7.22;6.05;;;;;;;;;;5054661;28;20031;-74
2023/09/02 07:25:29;;;;;;;6.20;5.57;;;;;;;;;;5054217;28;20072;-76
2023/09/02 07:27:57;;;;;;;7.90;5.78;;;;;;;;;;5055405;28;20254;-71
2023/09/02 07:30:26;;;;;;;7.25;5.72;;;;;;;;;;5053151;28;20032;-74
2023/09/02 07:32:59;;;;;;;7.00;6.13;;;;;;;;;;5052762;28;20029;-73
2023/09/02 07:35:26;;;;;;;10.80;6.18;;;;;;;;;;5053268;28;20033;-73
2023/09/02 07:37:51;;;;;;;9.38;6.18;;;;;;;;;;5052793;28;20033;-74
2023/09/02 07:40:16;;;;;;;8.90;6.43;;;;;;;;;;5054856;28;20059;-79
2023/09/02 07:42:41;;;;;;;7.50;5.85;;;;;;;;;;5054533;28;20304;-73
2023/09/02 07:45:07;;;;;;;7.72;6.40;;;;;;;;;;5054228;28;20021;-73
2023/09/02 07:47:33;;;;;;;9.73;6.40;;;;;;;;;;5052728;28;20396;-73
2023/09/02 07:49:58;;;;;;;7.27;5.97;;;;;;;;;;5052624;28;20032;-73
2023/09/02 07:52:24;;;;;;;9.60;6.03;;;;;;;;;;5053632;28;20262;-74
2023/09/02 07:54:49;;;;;;;8.30;6.70;;;;;;;;;;5053815;28;20134;-75
2023/09/02 07:57:14;;;;;;;7.53;6.18;;;;;;;;;;5053920;28;20056;-73
2023/09/02 07:59:40;;;;;;;7.67;6.10;;;;;;;;;;5053834;28;20024;-73
2023/09/02 08:02:05;;;;;;;10.95;6.40;;;;;;;;;;5053799;28;20254;-72
2023/09/02 08:04:31;;;;;;;11.30;6.30;;;;;;;;;;5054001;28;20480;-72
2023/09/02 08:06:56;;;;;;;10.38;6.70;;;;;;;;;;5053629;28;20274;-73
2023/09/02 08:09:21;;;;;;;9.68;6.15;;;;;;;;;;5053635;28;20025;-75
2023/09/02 08:11:46;;;;;;;9.18;6.80;;;;;;;;;;5052546;28;20559;-75
2023/09/02 08:14:12;;;;;;;10.98;7.07;;;;;;;;;;5052275;28;20025;-72
2023/09/02 08:16:37;;;;;;;14.03;7.40;;;;;;;;;;5053721;28;20021;-75
2023/09/02 08:19:02;;;;;;;9.15;7.07;;;;;;;;;;5054954;28;20268;-76
2023/09/02 08:21:27;;;;;;;9.88;6.85;;;;;;;;;;5052889;28;20029;-71
2023/09/02 08:23:53;;;;;;;8.63;6.57;;;;;;;;;;5054160;28;20206;-72
2023/09/02 08:26:18;;;;;;;10.93;6.83;;;;;;;;;;5057298;28;20494;-77
2023/09/02 08:28:44;;;;;;;8.25;6.70;;;;;;;;;;5053765;28;20606;-73
2023/09/02 08:31:13;;;;;;;8.93;6.47;;;;;;;;;;5055579;28;20075;-77
2023/09/02 08:33:38;;;;;;;8.60;6.05;;;;;;;;;;5055032;28;20109;-76
2023/09/02 08:36:04;;;;;;;8.63;5.80;;;;;;;;;;5054869;28;20060;-78
2023/09/02 08:38:29;;;;;;;8.05;6.22;;;;;;;;;;5053081;28;20028;-74
2023/09/02 08:40:57;;;;;;;7.63;6.20;;;;;;;;;;5053006;28;20021;-73
2023/09/02 08:43:25;;;;;;;8.82;6.25;;;;;;;;;;5052968;28;20258;-74
2023/09/02 08:45:53;;;;;;;8.40;6.55;;;;;;;;;;5054142;28;20373;-78
2023/09/02 08:48:24;;;;;;;9.27;6.38;;;;;;;;;;5054924;28;20420;-77
2023/09/02 08:50:54;;;;;;;8.90;6.80;;;;;;;;;;5056303;28;20020;-75
2023/09/02 08:53:19;;;;;;;8.50;6.40;;;;;;;;;;5050556;28;20033;-71
2023/09/02 08:55:47;;;;;;;7.88;6.18;;;;;;;;;;5052214;28;20031;-72
2023/09/02 08:58:12;;;;;;;9.85;6.60;;;;;;;;;;5052250;28;20036;-74
2023/09/02 09:00:41;;;;;;;9.10;5.72;;;;;;;;;;5052618;28;20029;-73
2023/09/02 09:03:11;;;;;;;6.80;4.97;;;;;;;;;;5052955;28;20024;-73
2023/09/02 09:05:39;;;;;;;6.35;5.07;;;;;;;;;;5052879;28;20484;-73
2023/09/02 09:08:04;;;;;;;5.28;4.60;;;;;;;;;;5052971;28;20041;-73
2023/09/02 09:10:32;;;;;;;7.55;5.18;;;;;;;;;;5052728;28;20063;-73
2023/09/02 09:12:58;;;;;;;6.88;5.43;;;;;;;;;;5052051;28;20130;-73
2023/09/02 09:15:24;;;;;;;6.47;5.55;;;;;;;;;;5051098;28;20068;-73
2023/09/02 09:17:50;;;;;;;6.28;4.60;;;;;;;;;;5052788;28;20029;-73
2023/09/02 09:20:16;;;;;;;7.90;4.78;;;;;;;;;;5053025;28;20064;-73
2023/09/02 09:22:41;;;;;;;7.55;4.22;;;;;;;;;;5052743;28;20063;-72
2023/09/02 09:25:07;;;;;;;5.45;4.65;;;;;;;;;;5051500;28;20071;-73
2023/09/02 09:27:34;;;;;;;4.80;4.15;;;;;;;;;;5052725;28;20028;-75
2023/09/02 09:30:00;;;;;;;5.03;4.32;;;;;;;;;;5051350;28;20021;-72
2023/09/02 09:32:25;;;;;;;6.32;4.68;;;;;;;;;;5051663;28;20391;-72
2023/09/02 09:34:50;;;;;;;5.32;4.60;;;;;;;;;;5052847;28;20033;-73
2023/09/02 09:37:16;;;;;;;5.95;4.40;;;;;;;;;;5054372;28;20066;-74
2023/09/02 09:39:46;;;;;;;5.55;4.68;;;;;;;;;;5056575;28;20052;-72
2023/09/02 09:42:14;;;;;;;5.35;4.38;;;;;;;;;;5055296;28;20027;-72
2023/09/02 09:44:58;;;;;;;5.35;4.55;;;;;;;;;;5056520;28;20025;-73
2023/09/02 09:47:25;;;;;;;4.40;3.88;;;;;;;;;;5056378;28;20020;-73
2023/09/02 09:49:50;;;;;;;4.38;3.92;;;;;;;;;;5056542;28;20025;-72
2023/09/02 09:52:20;;;;;;;6.60;4.03;;;;;;;;;;5056482;28;20021;-73
2023/09/02 09:54:48;;;;;;;6.97;4.00;;;;;;;;;;5056108;28;20082;-73
2023/09/02 09:57:33;;;;;;;4.20;3.75;;;;;;;;;;5056195;28;20028;-73
2023/09/02 09:59:59;;;;;;;5.68;4.10;;;;;;;;;;5056177;28;20021;-73
2023/09/02 10:02:24;;;;;;;4.25;3.83;;;;;;;;;;5056477;28;20028;-73
2023/09/02 10:04:54;;;;;;;6.15;4.22;;;;;;;;;;5054979;28;20052;-73
2023/09/02 10:07:25;;;;;;;4.72;4.22;;;;;;;;;;5056261;28;20112;-73
2023/09/02 10:09:54;;;;;;;5.55;4.22;;;;;;;;;;5056334;28;20059;-73
2023/09/02 10:12:20;;;;;;;4.78;4.10;;;;;;;;;;5056403;28;20035;-73
2023/09/02 10:14:47;;;;;;;4.10;3.65;;;;;;;;;;5055824;28;20025;-73
2023/09/02 10:17:13;;;;;;;4.10;2.97;;;;;;;;;;5055833;28;20108;-72
2023/09/02 10:19:39;;;;;;;3.42;2.90;;;;;;;;;;5056023;28;20047;-71
2023/09/02 10:22:06;;;;;;;3.38;3.08;;;;;;;;;;5054810;28;20518;-73
2023/09/02 10:24:44;;;;;;;2.83;2.47;;;;;;;;;;5055774;28;20025;-72
2023/09/02 10:27:17;;;;;;;3.70;2.92;;;;;;;;;;5055980;28;20494;-73
2023/09/02 10:29:45;;;;;;;2.83;2.47;;;;;;;;;;5054479;28;20120;-72
2023/09/02 10:32:15;;;;;;;6.85;2.67;;;;;;;;;;5055907;28;20094;-73
2023/09/02 10:34:52;;;;;;;2.65;2.42;;;;;;;;;;5056187;28;20021;-72
2023/09/02 10:37:20;;;;;;;2.70;2.20;;;;;;;;;;5055872;28;20499;-72
2023/09/02 10:40:01;;;;;;;3.00;2.65;;;;;;;;;;5055465;28;20463;-73
2023/09/02 10:42:27;;;;;;;3.13;2.80;;;;;;;;;;5054257;28;20108;-73
2023/09/02 10:44:53;;;;;;;2.80;2.50;;;;;;;;;;5055689;28;20549;-73
2023/09/02 10:47:19;;;;;;;3.58;2.55;;;;;;;;;;5055222;28;20404;-73
2023/09/02 10:49:45;;;;;;;3.80;2.97;;;;;;;;;;5054181;28;20029;-72
2023/09/02 10:52:13;;;;;;;2.80;2.50;;;;;;;;;;5055289;28;20404;-73
2023/09/02 10:55:03;;;;;;;4.55;2.22;;;;;;;;;;5055231;28;20033;-73
2023/09/02 10:57:30;;;;;;;3.20;2.70;;;;;;;;;;5055510;28;20078;-73
2023/09/02 11:00:31;;;;;;;2.67;2.25;;;;;;;;;;5055405;28;20146;-73
2023/09/02 11:02:58;;;;;;;3.22;2.60;;;;;;;;;;5033254;28;20123;-72
2023/09/02 11:05:27;;;;;;;2.60;2.38;;;;;;;;;;5050547;28;20037;-72
2023/09/02 11:07:53;;;;;;;3.10;2.70;;;;;;;;;;5053605;28;20070;-72
2023/09/02 11:10:18;;;;;;;3.00;2.38;;;;;;;;;;5054918;28;20033;-73
2023/09/02 11:12:59;;;;;;;4.55;2.60;;;;;;;;;;5054863;28;20091;-73
2023/09/02 11:15:24;;;;;;;2.50;2.20;;;;;;;;;;5055188;28;20029;-73
2023/09/02 11:17:50;;;;;;;2.25;2.05;;;;;;;;;;5055036;28;20507;-71
2023/09/02 11:20:23;;;;;;;2.53;2.33;;;;;;;;;;5054659;28;20025;-71
2023/09/02 11:22:52;;;;;;;2.73;2.13;;;;;;;;;;5054721;28;20025;-72
2023/09/02 11:25:30;;;;;;;3.05;2.42;;;;;;;;;;5053290;28;20269;-72
2023/09/02 11:27:59;;;;;;;2.90;2.45;;;;;;;;;;5054575;28;20496;-72
2023/09/02 11:30:26;;;;;;;3.05;2.42;;;;;;;;;;5055133;28;20060;-72
2023/09/02 11:32:52;;;;;;;2.38;2.17;;;;;;;;;;5054463;28;20031;-72
2023/09/02 11:35:29;;;;;;;2.83;2.50;;;;;;;;;;5053177;28;20029;-72
2023/09/02 11:37:55;;;;;;;2.65;1.88;;;;;;;;;;5053111;28;20028;-72
2023/09/02 11:40:23;;;;;;;2.50;2.30;;;;;;;;;;5054201;28;20511;-72
2023/09/02 11:42:55;;;;;;;3.17;2.40;;;;;;;;;;5054520;28;20029;-71
2023/09/02 11:45:22;;;;;;;2.90;2.50;;;;;;;;;;5054499;28;20024;-72
2023/09/02 11:47:48;;;;;;;2.60;2.40;;;;;;;;;;5054172;28;20017;-73
2023/09/02 11:50:19;;;;;;;2.80;2.20;;;;;;;;;;5054547;28;20025;-72
2023/09/02 11:52:45;;;;;;;3.53;2.60;;;;;;;;;;5053715;28;20036;-72
2023/09/02 11:55:12;;;;;;;3.20;2.45;;;;;;;;;;5053110;28;20017;-72
2023/09/02 11:57:41;;;;;;;2.67;2.45;;;;;;;;;;5054150;28;20078;-73
2023/09/02 12:00:08;;;;;;;2.80;2.47;;;;;;;;;;5052704;28;20029;-72
2023/09/02 12:02:37;;;;;;;3.35;2.60;;;;;;;;;;5052761;28;20052;-72
2023/09/02 12:05:03;;;;;;;3.65;2.53;;;;;;;;;;5054266;28;20033;-72
2023/09/02 12:07:30;;;;;;;3.20;2.47;;;;;;;;;;5054081;28;20393;-71
2023/09/02 12:09:55;;;;;;;3.08;2.53;;;;;;;;;;5054237;28;20025;-72
2023/09/02 12:12:21;;;;;;;3.67;2.45;;;;;;;;;;5054054;28;20108;-72
2023/09/02 12:14:47;;;;;;;2.63;2.22;;;;;;;;;;5053655;28;20547;-72
2023/09/02 12:17:12;;;;;;;3.08;2.53;;;;;;;;;;5053462;28;20481;-72
2023/09/02 12:19:38;;;;;;;3.20;2.60;;;;;;;;;;5054254;28;20025;-72
2023/09/02 12:22:04;;;;;;;2.83;2.50;;;;;;;;;;5052450;28;20035;-71
2023/09/02 12:24:29;;;;;;;3.17;2.78;;;;;;;;;;5053490;28;20078;-71
2023/09/02 12:26:55;;;;;;;3.78;2.42;;;;;;;;;;5052450;28;20021;-71
2023/09/02 12:29:22;;;;;;;2.85;2.40;;;;;;;;;;5053913;28;20028;-72
2023/09/02 12:32:01;;;;;;;2.95;2.20;;;;;;;;;;5053760;28;20396;-73
2023/09/02 12:34:34;;;;;;;2.78;2.50;;;;;;;;;;5053938;28;20025;-73
2023/09/02 12:37:19;;;;;;;;;;;;;;;;;;5052705;28;20020;-73
2023/09/02 12:39:45;;;;;;;2.92;2.25;;;;;;;;;;5053124;28;19927;-73
2023/09/02 12:42:25;;;;;;;2.30;2.10;;;;;;;;;;5052224;28;20484;-73
2023/09/02 12:44:58;;;;;;;3.35;2.30;;;;;;;;;;5054047;28;20017;-73
2023/09/02 12:47:24;;;;;;;3.03;2.27;;;;;;;;;;5053373;28;20063;-73
2023/09/02 12:49:53;;;;;;;4.22;2.70;;;;;;;;;;5053291;28;20033;-73
2023/09/02 12:52:27;;;;;;;3.20;2.75;;;;;;;;;;5053366;28;20020;-72
2023/09/02 12:54:55;;;;;;;;;;;;;;;;;;5053561;28;20028;-72
2023/09/02 12:57:22;;;;;;;3.33;2.60;;;;;;;;;;5052271;28;19994;-73
2023/09/02 12:59:48;;;;;;;3.22;2.72;;;;;;;;;;5051596;28;20029;-73
2023/09/02 13:02:13;;;;;;;3.42;3.03;;;;;;;;;;5053393;28;20499;-72
2023/09/02 13:04:39;;;;;;;3.53;2.85;;;;;;;;;;5052989;28;20021;-72
2023/09/02 13:07:04;;;;;;;3.53;2.63;;;;;;;;;;5051615;28;20056;-73
2023/09/02 13:09:30;;;;;;;3.20;2.90;;;;;;;;;;5052883;28;20039;-73
2023/09/02 13:11:56;;;;;;;3.40;2.80;;;;;;;;;;5051007;28;20530;-73
2023/09/02 13:14:21;;;;;;;3.70;2.85;;;;;;;;;;5053255;28;20029;-73
2023/09/02 13:16:47;;;;;;;3.40;2.90;;;;;;;;;;5053798;28;20115;-73
2023/09/02 13:19:13;;;;;;;4.15;2.88;;;;;;;;;;5053192;28;20029;-73
2023/09/02 13:21:38;;;;;;;7.45;3.25;;;;;;;;;;5053783;28;20029;-73
2023/09/02 13:24:03;;;;;;;3.10;2.80;;;;;;;;;;5052989;28;20063;-73
2023/09/02 13:26:30;;;;;;;4.13;2.78;;;;;;;;;;5052637;28;20029;-73
2023/09/02 13:29:01;;;;;;;2.80;2.40;;;;;;;;;;5051631;28;20029;-73
2023/09/02 13:31:26;;;;;;;2.42;2.10;;;;;;;;;;5053145;28;20028;-72
2023/09/02 13:33:51;;;;;;;2.90;2.60;;;;;;;;;;5052807;28;20033;-73
2023/09/02 13:36:17;;;;;;;3.28;2.58;;;;;;;;;;5052626;28;20258;-73
2023/09/02 13:38:42;;;;;;;3.05;2.60;;;;;;;;;;5052588;28;20029;-73
2023/09/02 13:41:09;;;;;;;3.78;2.25;;;;;;;;;;5052602;28;20373;-73
2023/09/02 13:43:38;;;;;;;3.83;2.85;;;;;;;;;;5051349;28;20038;-73
2023/09/02 13:46:09;;;;;;;3.10;2.78;;;;;;;;;;5051159;28;20504;-73
2023/09/02 13:48:35;;;;;;;3.35;2.92;;;;;;;;;;5052776;28;20037;-73
2023/09/02 13:51:03;;;;;;;3.38;2.72;;;;;;;;;;5052804;28;20043;-73
2023/09/02 13:53:32;;;;;;;3.30;2.70;;;;;;;;;;5053090;28;20025;-74
2023/09/02 13:56:01;;;;;;;2.50;2.30;;;;;;;;;;5052459;28;20039;-73
2023/09/02 13:58:35;;;;;;;5.38;2.35;;;;;;;;;;5052308;28;20451;-73
2023/09/02 14:01:06;;;;;;;2.97;2.30;;;;;;;;;;5053507;28;20032;-73
2023/09/02 14:03:32;;;;;;;2.90;2.30;;;;;;;;;;5052709;28;20032;-73
2023/09/02 14:06:03;;;;;;;2.92;2.63;;;;;;;;;;5052723;28;20051;-73
2023/09/02 14:08:38;;;;;;;2.88;2.60;;;;;;;;;;5052602;28;20025;-73
2023/09/02 14:11:04;;;;;;;2.85;2.50;;;;;;;;;;5052527;28;20104;-73
2023/09/02 14:13:40;;;;;;;2.78;2.47;;;;;;;;;;5052640;28;20100;-73
2023/09/02 14:16:06;;;;;;;2.63;2.22;;;;;;;;;;5051103;28;20021;-73
2023/09/02 14:18:32;;;;;;;3.97;2.33;;;;;;;;;;5052102;28;20029;-73
2023/09/02 14:20:57;;;;;;;3.10;2.33;;;;;;;;;;5051829;28;20033;-73
2023/09/02 14:23:22;;;;;;;2.47;2.28;;;;;;;;;;5054195;28;20029;-73
2023/09/02 14:25:48;;;;;;;3.10;2.50;;;;;;;;;;5054682;28;20028;-73
2023/09/02 14:28:13;;;;;;;2.97;2.10;;;;;;;;;;5055576;28;20737;-73
2023/09/02 14:30:38;;;;;;;2.47;2.00;;;;;;;;;;5054723;28;20028;-73
2023/09/02 14:33:06;;;;;;;2.38;2.17;;;;;;;;;;5055669;28;20258;-73
2023/09/02 14:35:31;;;;;;;2.40;2.20;;;;;;;;;;5054301;28;20017;-73
2023/09/02 14:37:56;;;;;;;2.13;1.92;;;;;;;;;;5056109;28;20143;-73
2023/09/02 14:40:22;;;;;;;2.87;2.53;;;;;;;;;;5055492;28;20037;-73
2023/09/02 14:42:47;;;;;;;2.90;2.15;;;;;;;;;;5055349;28;20250;-73